Flight Track Log - Related Links

Times and Time Zones

All times are in EDT time to prevent confusion due to time zone crossing. See the EJA695 flight status page for this flight to view local times or setup timezone preferences in your user account.

Time Position Orientation Groundspeed Altitude Reporting Facility
EDT Latitude Longitude Course Direction KTS MPH feet Rate Location/Type
Sat 04:02:00 PM 44.2263 -68.8999 240° Southwest  Level FlightAware Approximate
Sat 04:03:00 PM 44.1888 -68.9893 240° Southwest  Level FlightAware Approximate
Sat 04:04:00 PM 44.1513 -69.0786 240° Southwest  Level FlightAware Approximate
Sat 04:05:00 PM 44.1136 -69.1678 240° Southwest  Level FlightAware Approximate
Sat 04:06:00 PM 44.0729 -69.2542 235° Southwest  Level FlightAware Approximate
Sat 04:07:00 PM 44.0333 -69.3402 270° West  Level FlightAware Approximate
Sat 04:08:00 PM 43.9997 -69.4309 240° Southwest  Level FlightAware Approximate
Sat 04:09:00 PM 43.9624 -69.5202 240° Southwest  Level FlightAware Approximate
Sat 04:10:00 PM 43.9260 -69.6101 241° Southwest  Level FlightAware Approximate
Sat 04:11:00 PM 43.8900 -69.7002 241° Southwest  Level FlightAware Approximate
Sat 04:12:00 PM 43.8539 -69.7903 241° Southwest  Level FlightAware Approximate
Sat 04:13:00 PM 43.8162 -69.8789 239° Southwest  Level FlightAware Approximate
Sat 04:14:00 PM 43.7794 -69.9683 241° Southwest  Level FlightAware Approximate
Sat 04:15:00 PM 43.7406 -70.0401 241° Southwest  Level FlightAware Approximate
Sat 04:16:00 PM 43.7163 -70.1341 235° Southwest  Level FlightAware Approximate
Sat 04:17:00 PM 43.6740 -70.2186 235° Southwest  Level FlightAware Approximate
Sat 04:18:00 PM 43.6333 -70.3000 235° Southwest  Level FlightAware Approximate
Sat 04:19:00 PM 43.6456 -70.3086 235° Southwest  Level Estimated
Sat 04:20:00 PM 43.6456 -70.3086 235° Southwest  Level Estimated
Sat 04:21:00 PM 43.6456 -70.3086 235° Southwest  Level Estimated
Sat 04:22:00 PM 43.6456 -70.3086 235° Southwest  Level Estimated
Sat 04:23:00 PM 43.6456 -70.3086 235° Southwest  Level Estimated
Sat 04:24:00 PM 43.6456 -70.3086 235° Southwest  Level Estimated
Sat 04:25:00 PM 43.6456 -70.3086 235° Southwest  Level Estimated
Sat 04:26:00 PM 43.6456 -70.3086 235° Southwest  Level Estimated
Sat 04:27:00 PM 43.6456 -70.3086 235° Southwest  Level Estimated

Login

Don't have an account? Register now (free) for customized features, flight alerts, and more!